createdAt,value
2019-04-28T14:10:18.248Z,15.99
2019-04-28T14:12:52.727Z,16.00
2019-04-28T14:15:27.481Z,15.90
2019-04-28T14:18:08.821Z,15.76
2019-04-28T14:20:45.157Z,15.59
2019-04-28T14:23:17.586Z,15.41
2019-04-28T14:25:57.645Z,15.31
2019-04-28T14:28:29.533Z,15.21
2019-04-28T14:31:05.147Z,15.22
2019-04-28T14:33:46.732Z,15.49
2019-04-28T14:36:19.199Z,16.09
2019-04-28T14:38:54.531Z,16.87
2019-04-28T14:41:45.138Z,17.61
2019-04-28T14:44:22.947Z,18.19
2019-04-28T14:47:04.451Z,18.64
2019-04-28T14:49:42.176Z,18.91
2019-04-28T14:55:12.198Z,18.86
2019-04-28T14:57:43.369Z,18.90
2019-04-28T15:00:17.112Z,19.16
2019-04-28T15:02:52.119Z,19.52
2019-04-28T15:05:46.375Z,19.88
2019-04-28T15:08:23.174Z,20.25
2019-04-28T15:11:02.301Z,20.49
2019-04-28T15:13:35.058Z,20.80
2019-04-28T15:16:09.330Z,21.20
2019-04-28T15:18:47.562Z,21.44
2019-04-28T15:21:23.391Z,21.77
2019-04-28T15:24:00.014Z,22.11
2019-04-28T15:26:47.793Z,22.38
2019-04-28T15:29:24.635Z,22.49
2019-04-28T15:31:58.875Z,22.15
2019-04-28T15:34:32.542Z,21.67
2019-04-28T15:37:10.056Z,21.10
2019-04-28T15:42:38.991Z,20.18
2019-04-28T15:45:13.854Z,19.91
2019-04-28T15:47:49.246Z,19.58
2019-04-28T15:50:25.624Z,18.98
2019-04-28T15:53:03.178Z,18.15
2019-04-28T15:55:40.694Z,17.67
2019-04-28T15:58:28.622Z,17.62
2019-04-28T16:01:01.050Z,17.84
2019-04-28T16:03:32.410Z,18.33
2019-04-28T16:06:06.834Z,18.87
2019-04-28T16:08:36.244Z,19.18
2019-04-28T16:11:07.447Z,19.30
2019-04-28T16:13:37.661Z,19.31
2019-04-28T16:16:07.300Z,19.36
2019-04-28T16:18:42.023Z,19.39
2019-04-28T16:21:11.543Z,19.09
2019-04-28T16:23:42.660Z,18.67
2019-04-28T16:26:16.626Z,18.50
2019-04-28T16:28:48.600Z,18.47
2019-04-28T16:31:20.108Z,18.61
2019-04-28T16:33:51.399Z,18.80
2019-04-28T16:36:24.707Z,18.99
2019-04-28T16:38:56.750Z,18.98
2019-04-28T16:41:28.444Z,18.74
2019-04-28T16:44:01.666Z,18.54
2019-04-28T16:46:34.651Z,18.40
2019-04-28T16:49:04.500Z,18.27
2019-04-28T16:51:38.359Z,18.01
2019-04-28T16:54:09.607Z,17.73
2019-04-28T16:56:47.212Z,17.58
2019-04-28T16:59:24.165Z,17.56
2019-04-28T17:01:57.923Z,17.53
2019-04-28T17:04:29.335Z,17.50
2019-04-28T17:06:58.767Z,17.38
2019-04-28T17:09:28.259Z,17.16
2019-04-28T17:11:58.950Z,16.99
2019-04-28T17:14:28.293Z,16.97
2019-04-28T17:17:00.771Z,17.04
2019-04-28T17:19:31.806Z,17.17
2019-04-28T17:22:01.356Z,17.47
2019-04-28T17:24:32.755Z,17.77
2019-04-28T17:27:02.094Z,17.80
2019-04-28T17:29:31.477Z,17.58
2019-04-28T17:32:00.874Z,17.33
2019-04-28T17:34:29.850Z,17.06
2019-04-28T17:36:58.873Z,16.77
2019-04-28T17:39:29.544Z,16.57
2019-04-28T17:42:00.227Z,16.43
2019-04-28T17:44:39.460Z,16.35
2019-04-28T17:47:09.496Z,16.27
2019-04-28T17:49:38.804Z,16.12
2019-04-28T17:52:09.424Z,16.07
2019-04-28T17:54:38.630Z,15.95
2019-04-28T17:57:07.795Z,15.80
2019-04-28T17:59:37.099Z,15.64
2019-04-28T18:02:11.234Z,15.52
2019-04-28T18:04:57.555Z,15.52
2019-04-28T18:07:27.987Z,15.64
2019-04-28T18:09:56.887Z,15.81
2019-04-28T18:12:25.697Z,15.95
2019-04-28T18:14:57.833Z,16.04
2019-04-28T18:17:32.297Z,16.09
2019-04-28T18:20:01.229Z,16.08
2019-04-28T18:22:29.749Z,15.96
2019-04-28T18:24:58.370Z,15.65
2019-04-28T18:27:27.646Z,15.27
2019-04-28T18:29:56.204Z,14.94
2019-04-28T18:32:28.708Z,14.60
2019-04-28T18:35:14.063Z,14.31
2019-04-28T18:38:01.309Z,14.04
2019-04-28T18:40:47.216Z,13.76
2019-04-28T18:43:20.346Z,13.45
2019-04-28T18:45:48.798Z,13.17
2019-04-28T18:48:17.210Z,12.98
2019-04-28T18:50:46.051Z,12.81
2019-04-28T18:53:14.471Z,12.67
2019-04-28T18:55:43.236Z,12.53
2019-04-28T18:58:11.746Z,12.42
2019-04-28T19:00:41.838Z,12.31
2019-04-28T19:03:10.269Z,12.17
2019-04-28T19:05:40.379Z,12.05
2019-04-28T19:08:13.564Z,11.95
2019-04-28T19:10:59.353Z,11.87
2019-04-28T19:13:29.455Z,11.76
2019-04-28T19:16:17.901Z,11.65
2019-04-28T19:18:51.118Z,11.59
2019-04-28T19:21:19.579Z,11.49
2019-04-28T19:23:49.466Z,11.39
2019-04-28T19:26:18.796Z,11.31
2019-04-28T19:28:47.825Z,11.24
2019-04-28T19:31:16.277Z,11.21
2019-04-28T19:33:44.798Z,11.16
2019-04-28T19:36:13.368Z,11.13
2019-04-28T19:38:41.857Z,11.10
2019-04-28T19:41:10.275Z,11.06
2019-04-28T19:43:38.784Z,11.03
2019-04-28T19:46:09.133Z,10.99
2019-04-28T19:48:37.569Z,10.94
2019-04-28T19:51:05.997Z,10.91
2019-04-28T19:53:34.536Z,10.86
2019-04-28T19:56:04.613Z,10.82
2019-04-28T19:58:43.377Z,10.76
2019-04-28T20:01:15.834Z,10.73
2019-04-28T20:03:44.672Z,10.67
2019-04-28T20:06:13.403Z,10.60
2019-04-28T20:08:41.828Z,10.53
2019-04-28T20:11:10.519Z,10.47
2019-04-28T20:13:39.092Z,10.40
2019-04-28T20:16:07.706Z,10.34
2019-04-28T20:18:36.139Z,10.30
2019-04-28T20:21:04.614Z,10.26
2019-04-28T20:23:33.058Z,10.25
2019-04-28T20:26:01.565Z,10.21
2019-04-28T20:28:30.053Z,10.17
2019-04-28T20:30:58.539Z,10.10
2019-04-28T20:33:27.247Z,10.03
2019-04-28T20:35:57.336Z,9.98
2019-04-28T20:38:30.106Z,9.93
2019-04-28T20:41:08.916Z,9.90
2019-04-28T20:43:37.391Z,9.85
2019-04-28T20:46:05.869Z,9.84
2019-04-28T20:48:34.444Z,9.81
2019-04-28T20:51:02.876Z,9.79
2019-04-28T20:53:31.431Z,9.75
2019-04-28T20:56:00.099Z,9.72
2019-04-28T20:58:28.552Z,9.68
2019-04-28T21:00:57.055Z,9.67
2019-04-28T21:03:25.707Z,9.66
2019-04-28T21:05:54.128Z,9.63
2019-04-28T21:08:22.590Z,9.60
2019-04-28T21:10:51.014Z,9.56
2019-04-28T21:13:19.591Z,9.55
2019-04-28T21:15:48.046Z,9.54
2019-04-28T21:18:16.987Z,9.51
2019-04-28T21:20:45.642Z,9.47
2019-04-28T21:23:14.042Z,9.45
2019-04-28T21:25:42.502Z,9.43
2019-04-28T21:28:10.950Z,9.40
2019-04-28T21:30:39.433Z,9.37
2019-04-28T21:33:08.120Z,9.35
2019-04-28T21:35:36.546Z,9.32
2019-04-28T21:38:05.081Z,9.29
2019-04-28T21:40:33.929Z,9.26
2019-04-28T21:43:06.939Z,9.22
2019-04-28T21:45:53.171Z,9.23
2019-04-28T21:48:41.586Z,9.20
2019-04-28T21:51:12.002Z,9.17
2019-04-28T21:53:40.237Z,9.12
2019-04-28T21:56:08.825Z,9.10
2019-04-28T21:58:37.273Z,9.08
2019-04-28T22:01:07.199Z,9.03
2019-04-28T22:03:35.585Z,8.98
2019-04-28T22:06:04.779Z,8.93
2019-04-28T22:08:33.208Z,8.88
2019-04-28T22:11:01.675Z,8.83
2019-04-28T22:13:30.518Z,8.80
2019-04-28T22:15:58.946Z,8.78
2019-04-28T22:18:27.380Z,8.76
2019-04-28T22:20:55.939Z,8.75
2019-04-28T22:23:44.335Z,8.71
2019-04-28T22:26:14.426Z,8.69
2019-04-28T22:28:42.861Z,8.67
2019-04-28T22:31:11.336Z,8.64
2019-04-28T22:33:39.823Z,8.64
2019-04-28T22:36:08.252Z,8.61
2019-04-28T22:38:36.848Z,8.58
2019-04-28T22:41:05.389Z,8.54
2019-04-28T22:43:33.826Z,8.54
2019-04-28T22:46:02.248Z,8.50
2019-04-28T22:48:30.685Z,8.48
2019-04-28T22:50:59.578Z,8.47
2019-04-28T22:53:29.701Z,8.50
2019-04-28T22:56:02.282Z,8.53
2019-04-28T22:58:32.346Z,8.53
2019-04-28T23:01:02.409Z,8.56
2019-04-28T23:03:35.613Z,8.58
2019-04-28T23:06:04.697Z,8.57
2019-04-28T23:08:33.135Z,8.57
2019-04-28T23:11:01.625Z,8.58
2019-04-28T23:13:30.051Z,8.57
2019-04-28T23:15:58.566Z,8.53
2019-04-28T23:18:27.657Z,8.51
2019-04-28T23:21:06.375Z,8.49
2019-04-28T23:23:34.842Z,8.48
2019-04-28T23:26:03.296Z,8.47
2019-04-28T23:28:31.716Z,8.45
2019-04-28T23:31:00.207Z,8.40
2019-04-28T23:33:28.621Z,8.39
2019-04-28T23:35:57.141Z,8.37
2019-04-28T23:38:25.610Z,8.34
2019-04-28T23:40:55.676Z,8.32
2019-04-28T23:43:24.112Z,8.31
2019-04-28T23:45:53.348Z,8.33
2019-04-28T23:48:21.776Z,8.34
2019-04-28T23:50:51.844Z,8.32
2019-04-28T23:53:22.275Z,8.32
2019-04-28T23:55:50.721Z,8.33
2019-04-28T23:58:19.164Z,8.32
